Terminal Aerodrome Forecast
Issued by NWS Louisville, KY

Home | Current Version | Previous Version | Text Only | Print | Product List | Glossary On
Versions: 1 2 3 4 5 6 7 8 9 10 11 12 13 14 15 16 17 18 19
000
FTUS43 KLMK 270700 AAA
TAFSDF
TAF AMD
KSDF 270743Z 2708/2812 22004KT 6SM -TSRA SCT040CB OVC100
      TEMPO 2708/2710 VRB18G30KT 1SM TSRA BKN020CB
     FM271500 27019G27KT P6SM BKN050
     FM280200 33010KT P6SM SCT040=

USA.gov is the U.S. government's official web portal to all federal, state and local government web resources and services.